Latest Weather Observations for Camden

IDN60801

Issued at 9:02 pm EST Wednesday 19 September 2018 (issued every 10 minutes, with the page automatically refreshed every 10 minutes)

About weather observations | Map of weather stations | Latest weather observations for NSW | Other Formats
Station Details ID: 068192 Name: CAMDEN AIRPORT AWS Lat: -34.04 Lon: 150.69 Height: 73.9 m
Data from the previous 72 hours. | See also: Recent months at Camden
Date/Time
EST
Temp
°C
App
Temp
°C
Dew
Point
°C
Rel
Hum
%
Delta-T
°C
Wind Press
QNH
hPa
Press
MSL
hPa
Rain since
9am
mm
Dir  Spd
km/h
Gust
km/h
Spd
kts
Gust
kts
19/09:00pm 15.3 8.2 -4.6 25 7.6 SSW 24 32 13 17 1014.5 1014.5 0.0
19/08:30pm 15.6 9.2 -4.9 24 7.9 SSW 20 28 11 15 1013.9 1013.9 0.0
19/08:00pm 16.3 7.6 -3.7 25 7.9 SW 33 41 18 22 1013.1 1013.1 0.0
19/07:30pm 17.2 11.2 -1.9 27 7.9 SSW 20 30 11 16 1012.5 1012.5 0.0
19/07:00pm 18.1 11.6 -2.2 25 8.5 SW 22 32 12 17 1011.8 1011.8 0.0
19/06:30pm 18.8 12.9 -2.2 24 8.8 SW 19 28 10 15 1011.3 1011.3 0.0
19/06:00pm 19.8 12.9 -2.5 22 9.4 SW 24 33 13 18 1010.3 1010.3 0.0
19/05:30pm 21.0 14.4 -3.5 19 10.2 WSW 22 35 12 19 1009.5 1009.5 0.0
19/05:00pm 22.5 15.1 -3.7 17 11.1 WSW 26 33 14 18 1008.6 1008.6 0.0
19/04:30pm 23.6 16.4 -2.1 18 11.3 WSW 26 41 14 22 1008.0 1007.9 0.0
19/04:00pm 24.7 17.0 -2.8 16 12.0 NW 28 41 15 22 1007.4 1007.3 0.0
19/03:30pm 25.3 16.2 -3.2 15 12.4 NW 35 54 19 29 1007.0 1006.9 0.0
19/03:06pm 26.0 16.4 -4.5 13 13.1 NW 37 56 20 30 1007.0 1006.9 0.0
19/03:00pm 25.9 15.8 -5.6 12 13.2 NW 39 52 21 28 1006.9 1006.8 0.0
19/02:30pm 26.4 15.9 -6.4 11 13.6 NW 41 59 22 32 1006.9 1006.8 0.0
19/02:03pm 27.0 18.0 -5.9 11 13.9 WNW 33 52 18 28 1006.8 1006.7 0.0
19/02:00pm 27.1 17.3 -7.1 10 14.1 WNW 37 54 20 29 1006.8 1006.7 0.0
19/01:30pm 27.1 16.9 -7.1 10 14.1 WNW 39 67 21 36 1006.5 1006.4 0.0
19/01:06pm 27.6 17.8 -6.7 10 14.3 NW 37 56 20 30 1006.3 1006.2 0.0
19/01:00pm 27.9 18.6 -5.2 11 14.3 NW 35 52 19 28 1006.3 1006.2 0.0
19/12:52pm 28.2 18.1 -6.3 10 14.6 NW 39 59 21 32 1006.4 1006.3 0.0
19/12:42pm 28.0 17.5 -6.4 10 14.5 WNW 41 63 22 34 1006.4 1006.3 0.0
19/12:30pm 27.7 17.9 -6.6 10 14.3 WNW 37 56 20 30 1006.6 1006.5 0.0
19/12:00pm 27.8 18.4 -6.6 10 14.4 NW 35 54 19 29 1006.7 1006.6 0.0
19/11:55am 27.8 19.0 -6.6 10 14.4 NW 32 54 17 29 1006.6 1006.5 0.0
19/11:30am 28.0 19.1 -5.2 11 14.3 NW 33 56 18 30 1007.0 1006.9 0.0
19/11:00am 27.5 19.4 -3.3 13 13.7 NNW 30 52 16 28 1006.9 1006.8 0.0
19/10:56am 27.7 20.3 -0.4 16 13.1 NNW 28 46 15 25 1007.1 1007.0 0.0
19/10:30am 25.9 19.1 0.5 19 11.9 N 26 35 14 19 1007.5 1007.4 0.0
19/10:00am 23.2 19.8 6.1 33 8.7 NNE 13 20 7 11 1008.3 1008.2 0.0
19/09:30am 19.9 18.3 6.3 41 6.8 NNW 4 11 2 6 1009.2 1009.2 0.0
19/09:00am 16.3 14.7 7.8 57 4.3 ENE 6 11 3 6 1010.0 1010.0 0.0
19/08:30am 13.0 11.7 7.7 70 2.6 ESE 4 9 2 5 1010.4 1010.4 0.0
19/08:00am 11.3 10.4 7.6 78 1.8 ESE 2 9 1 5 1010.6 1010.6 0.0
19/07:30am 10.1 9.6 7.7 85 1.2 CALM 0 0 0 0 1010.6 1010.6 0.0
19/07:00am 7.8 6.9 7.7 99 0.0 WSW 2 6 1 3 1009.9 1009.9 0.0
19/06:34am 6.1 5.2 6.0 99 0.0 CALM 0 0 0 0 1009.5 1009.5 0.0
19/06:30am 5.8 4.8 5.7 99 0.0 CALM 0 0 0 0 1009.5 1009.5 0.0
19/06:00am 4.7 3.5 4.6 99 0.0 CALM 0 0 0 0 1009.5 1009.5 0.0
19/05:48am 4.7 3.5 4.6 99 0.0 CALM 0 0 0 0 1009.5 1009.5 0.0
19/05:40am 5.8 4.8 5.7 99 0.0 CALM 0 0 0 0 1009.4 1009.4 0.0
19/05:30am 4.9 3.7 4.6 98 0.1 CALM 0 0 0 0 1009.5 1009.5 0.0
19/05:21am 5.3 4.2 5.2 99 0.0 CALM 0 0 0 0 1009.6 1009.6 0.0
19/05:17am 5.6 4.6 5.5 99 0.0 CALM 0 0 0 0 1009.6 1009.6 0.0
19/05:00am 5.7 4.7 5.6 99 0.0 CALM 0 0 0 0 1009.5 1009.5 0.0
19/04:59am 5.6 4.6 5.5 99 0.0 CALM 0 0 0 0 1009.5 1009.5 0.0
19/04:53am 5.9 4.9 5.8 99 0.0 CALM 0 0 0 0 1009.5 1009.5 0.0
19/04:40am 5.9 4.5 5.6 98 0.1 ESE 2 11 1 6 1009.5 1009.5 0.0
19/04:30am 5.8 4.8 5.4 97 0.2 CALM 0 0 0 0 1009.6 1009.6 0.0
19/04:13am 6.7 5.9 6.6 99 0.0 CALM 0 0 0 0 1009.4 1009.4 0.0
19/04:00am 6.8 6.0 6.7 99 0.0 CALM 0 0 0 0 1009.4 1009.4 0.0
19/03:53am 7.0 6.2 6.7 98 0.1 CALM 0 0 0 0 1009.4 1009.4 0.0
19/03:30am 6.9 6.1 6.5 97 0.2 CALM 0 0 0 0 1009.3 1009.3 0.0
19/03:00am 7.3 6.5 6.6 95 0.3 CALM 0 0 0 0 1009.5 1009.5 0.0
19/02:30am 7.8 7.2 7.4 97 0.2 CALM 0 0 0 0 1009.9 1009.9 0.0
19/02:00am 7.6 6.8 6.7 94 0.4 CALM 0 0 0 0 1010.2 1010.2 0.0
19/01:30am 8.2 6.7 7.0 92 0.6 SSW 4 7 2 4 1010.6 1010.6 0.0
19/01:00am 8.0 6.8 6.6 91 0.6 SSW 2 7 1 4 1011.2 1011.2 0.0
19/12:30am 9.0 8.4 7.5 90 0.7 CALM 0 0 0 0 1011.3 1011.3 0.0
19/12:00am 9.4 8.9 7.7 89 0.8 CALM 0 0 0 0 1011.7 1011.7 0.0
 
Date/Time
EST
Temp
°C
App
Temp
°C
Dew
Point
°C
Rel
Hum
%
Delta-T
°C
Wind Press
QNH
hPa
Press
MSL
hPa
Rain since
9am
mm
Dir  Spd
km/h
Gust
km/h
Spd
kts
Gust
kts
18/11:30pm 9.8 9.3 7.9 88 0.9 CALM 0 0 0 0 1011.9 1011.9 0.0
18/11:00pm 10.4 9.6 8.3 87 1.0 N 2 7 1 4 1012.3 1012.3 0.0
18/10:30pm 10.9 10.5 8.1 83 1.4 CALM 0 0 0 0 1012.6 1012.6 0.0
18/10:00pm 12.0 11.6 8.3 78 1.8 CALM 0 6 0 3 1012.8 1012.8 0.0
18/09:30pm 12.0 11.4 7.3 73 2.3 CALM 0 0 0 0 1012.9 1012.9 0.0
18/09:00pm 13.1 12.4 8.6 74 2.3 SSW 2 7 1 4 1013.0 1013.0 0.0
18/08:30pm 14.2 12.6 8.2 67 3.0 SSW 6 7 3 4 1013.1 1013.1 0.0
18/08:00pm 15.6 15.3 8.6 63 3.6 CALM 0 0 0 0 1013.2 1013.2 0.0
18/07:30pm 16.9 16.3 9.1 60 4.1 SSE 2 7 1 4 1013.0 1013.0 0.0
18/07:00pm 17.3 16.2 8.4 56 4.6 S 4 11 2 6 1012.7 1012.7 0.0
18/06:30pm 19.4 17.0 8.7 50 5.6 E 11 19 6 10 1012.3 1012.3 0.0
18/06:00pm 20.8 18.1 7.4 42 6.9 E 11 17 6 9 1012.1 1012.1 0.0
18/05:30pm 22.4 19.1 6.2 35 8.2 ENE 13 19 7 10 1011.8 1011.8 0.0
18/05:00pm 25.5 21.1 0.2 19 11.8 NW 13 17 7 9 1011.4 1011.4 0.0
18/04:30pm 26.3 21.5 0.1 18 12.2 NW 15 26 8 14 1011.3 1011.3 0.0
18/04:00pm 26.6 21.4 0.4 18 12.3 NNW 17 30 9 16 1011.4 1011.4 0.0
18/03:42pm 26.5 20.7 -1.3 16 12.7 NW 19 26 10 14 1011.5 1011.5 0.0
18/03:30pm 26.9 21.0 -1.9 15 13.0 NW 19 28 10 15 1011.5 1011.5 0.0
18/03:23pm 26.9 20.7 -0.2 17 12.6 WNW 22 30 12 16 1011.6 1011.6 0.0
18/03:00pm 26.3 19.4 -2.4 15 12.8 WNW 24 37 13 20 1011.9 1011.9 0.0
18/02:30pm 26.3 18.2 -3.3 14 13.0 NW 30 41 16 22 1012.2 1012.2 0.0
18/02:23pm 26.2 18.4 -3.4 14 13.0 NW 28 48 15 26 1012.3 1012.3 0.0
18/02:00pm 26.0 17.9 -3.5 14 12.9 NW 30 41 16 22 1012.8 1012.8 0.0
18/01:54pm 26.1 18.8 -2.5 15 12.7 NW 26 39 14 21 1012.9 1012.9 0.0
18/01:30pm 24.7 20.9 1.6 22 11.0 NNE 11 20 6 11 1013.4 1013.4 0.0
18/01:00pm 24.1 19.9 1.7 23 10.6 N 13 20 7 11 1014.1 1014.1 0.0
18/12:30pm 23.4 18.6 2.8 26 9.9 N 17 24 9 13 1014.9 1014.9 0.0
18/12:00pm 22.8 18.5 3.4 28 9.4 N 15 24 8 13 1015.8 1015.7 0.0
18/11:30am 21.1 17.4 4.2 33 8.2 NNE 13 20 7 11 1016.8 1016.7 0.0
18/11:00am 20.0 16.3 4.5 36 7.5 NNE 13 20 7 11 1017.4 1017.3 0.0
18/10:30am 18.8 16.5 5.6 42 6.5 N 7 13 4 7 1018.1 1018.0 0.0
18/10:00am 16.6 14.5 5.9 49 5.2 N 6 11 3 6 1018.8 1018.7 0.0
18/09:30am 14.9 13.2 6.0 55 4.3 E 4 9 2 5 1019.4 1019.3 0.0
18/09:00am 13.4 11.6 5.3 58 3.8 E 4 9 2 5 1019.9 1019.9 0.0
18/08:30am 12.2 10.2 6.3 67 2.8 ESE 6 9 3 5 1020.1 1020.1 0.0
18/08:00am 9.4 8.4 5.4 76 1.8 CALM 0 0 0 0 1020.3 1020.3 0.0
18/07:30am 7.0 6.0 5.5 90 0.7 CALM 0 0 0 0 1020.2 1020.2 0.0
18/07:00am 4.9 3.7 4.8 99 0.0 CALM 0 0 0 0 1020.2 1020.2 0.0
18/06:36am 3.5 2.1 3.4 99 0.0 CALM 0 0 0 0 1020.2 1020.2 0.0
18/06:30am 3.1 1.6 3.0 99 0.0 CALM 0 0 0 0 1020.2 1020.2 0.0
18/06:00am 2.5 0.9 2.4 99 0.0 CALM 0 0 0 0 1020.0 1020.0 0.0
18/05:30am 3.5 2.1 3.4 99 0.0 CALM 0 0 0 0 1020.0 1020.0 0.0
18/05:00am 3.2 1.7 3.1 99 0.0 CALM 0 0 0 0 1020.0 1020.0 0.0
18/04:30am 3.5 2.1 3.4 99 0.0 CALM 0 0 0 0 1019.9 1019.9 0.0
18/04:00am 3.9 2.5 3.8 99 0.0 CALM 0 0 0 0 1019.8 1019.7 0.0
18/03:49am 4.0 2.7 3.9 99 0.0 CALM 0 0 0 0 1019.7 1019.6 0.0
18/03:30am 3.9 2.5 3.6 98 0.1 CALM 0 0 0 0 1019.7 1019.6 0.0
18/03:08am 4.6 3.4 4.5 99 0.0 CALM 0 0 0 0 1019.9 1019.9 0.0
18/03:00am 4.5 3.3 4.4 99 0.0 CALM 0 0 0 0 1020.0 1020.0 0.0
18/02:47am 4.5 3.2 4.2 98 0.1 CALM 0 0 0 0 1020.2 1020.2 0.0
18/02:30am 4.7 3.4 4.3 97 0.2 CALM 0 0 0 0 1020.2 1020.2 0.0
18/02:09am 4.8 3.6 4.4 97 0.2 CALM 0 0 0 0 1020.5 1020.5 0.0
18/02:00am 5.1 3.9 4.7 97 0.2 CALM 0 0 0 0 1020.5 1020.5 0.0
18/01:50am 5.1 3.9 4.5 96 0.3 CALM 0 0 0 0 1020.7 1020.7 0.0
18/01:30am 5.3 4.1 4.6 95 0.3 CALM 0 0 0 0 1020.9 1020.9 0.0
18/01:00am 5.8 4.6 4.6 92 0.5 CALM 0 0 0 0 1021.0 1021.0 0.0
18/12:30am 6.4 5.3 5.0 91 0.6 CALM 0 0 0 0 1021.3 1021.3 0.0
18/12:00am 6.6 5.4 4.8 88 0.8 CALM 0 0 0 0 1021.4 1021.4 0.0
 
Date/Time
EST
Temp
°C
App
Temp
°C
Dew
Point
°C
Rel
Hum
%
Delta-T
°C
Wind Press
QNH
hPa
Press
MSL
hPa
Rain since
9am
mm
Dir  Spd
km/h
Gust
km/h
Spd
kts
Gust
kts
17/11:30pm 6.9 5.8 5.2 89 0.8 CALM 0 0 0 0 1021.7 1021.7 0.0
17/11:00pm 8.3 7.3 5.4 82 1.3 CALM 0 0 0 0 1021.8 1021.8 0.0
17/10:30pm 7.4 6.3 4.9 84 1.1 CALM 0 0 0 0 1021.8 1021.8 0.0
17/10:00pm 8.9 6.4 4.7 75 1.9 ENE 7 11 4 6 1021.8 1021.8 0.0
17/09:30pm 9.2 8.0 4.6 73 2.0 CALM 0 0 0 0 1022.0 1022.0 0.0
17/09:00pm 9.6 8.4 4.8 72 2.1 CALM 0 0 0 0 1022.2 1022.2 0.0
17/08:30pm 11.2 10.1 4.9 65 2.9 CALM 0 0 0 0 1022.1 1022.1 0.0
17/08:00pm 11.6 10.5 5.3 65 2.9 CALM 0 0 0 0 1022.0 1022.0 0.0
17/07:30pm 13.0 10.5 4.9 58 3.8 NE 7 9 4 5 1021.7 1021.7 0.0
17/07:00pm 13.1 9.4 4.5 56 3.9 NE 13 15 7 8 1021.5 1021.5 0.0
17/06:30pm 14.4 10.0 5.0 53 4.4 NE 17 22 9 12 1021.1 1021.1 0.0
17/06:00pm 14.8 9.5 5.1 52 4.6 ENE 22 32 12 17 1020.6 1020.6 0.0
17/05:30pm 15.5 10.7 5.4 51 4.8 ENE 20 28 11 15 1020.4 1020.4 0.0
17/05:00pm 16.7 11.8 5.0 46 5.6 ENE 20 28 11 15 1020.2 1020.2 0.0
17/04:30pm 17.8 12.4 4.7 42 6.3 ENE 22 33 12 18 1020.1 1020.1 0.0
17/04:00pm 19.1 13.9 3.3 35 7.4 NE 20 33 11 18 1020.1 1020.1 0.0
17/03:30pm 19.4 13.8 1.4 30 8.2 NE 20 30 11 16 1020.1 1020.1 0.0
17/03:00pm 19.6 14.6 1.1 29 8.3 NNE 17 28 9 15 1020.4 1020.4 0.0
17/02:30pm 18.9 14.1 0.5 29 8.2 NNE 15 26 8 14 1020.9 1020.9 0.0
17/02:00pm 19.1 13.5 1.1 30 8.1 NNE 20 30 11 16 1021.2 1021.2 0.0
17/01:30pm 19.5 13.8 0.5 28 8.5 NE 20 33 11 18 1021.3 1021.3 0.0
17/01:00pm 18.8 13.8 1.3 31 7.8 NNE 17 32 9 17 1021.9 1021.9 0.0
17/12:30pm 17.9 12.0 -0.8 28 8.0 N 20 28 11 15 1022.7 1022.7 0.0
17/12:00pm 18.0 13.7 1.1 32 7.5 N 13 28 7 15 1023.2 1023.2 0.0
17/11:30am 17.4 12.2 0.1 31 7.5 NNE 17 26 9 14 1023.9 1023.9 0.0
17/11:00am 16.2 11.0 -0.1 33 6.9 NNW 17 24 9 13 1024.4 1024.4 0.0
17/10:30am 16.7 13.3 2.0 37 6.6 NNW 9 28 5 15 1024.8 1024.8 0.0
17/10:00am 15.5 12.4 1.6 39 6.1 NW 7 17 4 9 1025.2 1025.2 0.0
17/09:30am 14.0 11.3 2.9 47 5.0 NNW 6 11 3 6 1025.6 1025.6 0.0
17/09:00am 12.7 11.1 2.6 50 4.4 CALM 0 2 0 1 1025.7 1025.7 0.0
17/08:30am 11.0 8.7 2.8 57 3.6 S 4 9 2 5 1025.8 1025.8 0.0
17/08:00am 8.5 6.5 2.5 66 2.5 SSE 2 7 1 4 1025.6 1025.6 0.0
17/07:30am 6.6 5.0 2.5 75 1.7 CALM 0 0 0 0 1025.4 1025.4 0.0
17/07:00am 4.1 2.4 2.0 86 0.8 CALM 0 0 0 0 1025.2 1025.2 0.0
17/06:30am 2.2 0.4 1.2 93 0.4 CALM 0 0 0 0 1024.8 1024.8 0.0
17/06:00am 1.8 -1.2 0.9 94 0.3 SSE 6 7 3 4 1024.7 1024.7 0.0
17/05:30am 1.6 -1.5 0.4 92 0.4 S 6 7 3 4 1024.5 1024.5 0.0
17/05:00am 1.9 0.1 0.9 93 0.4 CALM 0 0 0 0 1024.3 1024.3 0.0
17/04:30am 1.6 -0.3 0.3 91 0.5 CALM 0 0 0 0 1024.0 1024.0 0.0
17/04:00am 2.1 0.3 0.9 92 0.5 CALM 0 0 0 0 1023.9 1023.9 0.0
17/03:30am 2.1 0.3 0.9 92 0.5 CALM 0 0 0 0 1023.7 1023.7 0.0
17/03:00am 2.3 0.5 1.0 91 0.5 CALM 0 0 0 0 1023.5 1023.5 0.0
17/02:30am 2.5 0.6 0.4 86 0.8 CALM 0 0 0 0 1023.5 1023.5 0.0
17/02:00am 3.2 1.4 1.3 87 0.7 CALM 0 0 0 0 1023.8 1023.8 0.0
17/01:30am 3.1 1.2 0.7 84 0.9 CALM 0 0 0 0 1023.9 1023.9 0.0
17/01:00am 3.7 1.9 0.9 82 1.1 CALM 0 0 0 0 1024.1 1024.1 0.0
17/12:30am 4.1 2.3 1.3 82 1.1 CALM 0 0 0 0 1024.2 1024.2 0.0
17/12:00am 5.1 3.4 1.6 78 1.4 CALM 0 0 0 0 1024.1 1024.1 0.0
 
Date/Time
EST
Temp
°C
App
Temp
°C
Dew
Point
°C
Rel
Hum
%
Delta-T
°C
Wind Press
QNH
hPa
Press
MSL
hPa
Rain since
9am
mm
Dir  Spd
km/h
Gust
km/h
Spd
kts
Gust
kts
16/11:30pm 5.4 3.6 1.5 76 1.6 CALM 0 0 0 0 1024.1 1024.1 0.0
16/11:00pm 4.4 2.6 0.9 78 1.3 CALM 0 0 0 0 1024.2 1024.2 0.0
16/10:30pm 5.9 4.1 1.2 72 1.9 CALM 0 0 0 0 1024.1 1024.1 0.0
16/10:00pm 5.6 3.8 1.3 74 1.7 CALM 0 0 0 0 1024.1 1024.1 0.0
16/09:30pm 6.8 3.9 1.5 69 2.1 NW 6 7 3 4 1023.9 1023.9 0.0

Other Formats:

Comma delimited format used in spreadsheet applications
http://www.bom.gov.au/fwo/IDN60801/IDN60801.94755.axf

JavaScript Object Notation format (JSON) in row-major order
http://www.bom.gov.au/fwo/IDN60801/IDN60801.94755.json